sensor_id;sensor_type;location;lat;lon;timestamp;P1;durP1;ratioP1;P2;durP2;ratioP2
44078;SDS011;29744;49.078;12.878;2022-07-22T00:04:53;1.80;;;1.23;;
44078;SDS011;29744;49.078;12.878;2022-07-22T00:09:53;2.55;;;1.35;;
44078;SDS011;29744;49.078;12.878;2022-07-22T00:14:54;2.03;;;1.23;;
44078;SDS011;29744;49.078;12.878;2022-07-22T00:19:54;2.22;;;1.30;;
44078;SDS011;29744;49.078;12.878;2022-07-22T00:24:54;1.95;;;1.40;;
44078;SDS011;29744;49.078;12.878;2022-07-22T00:29:55;2.47;;;1.40;;
44078;SDS011;29744;49.078;12.878;2022-07-22T00:34:55;1.80;;;1.15;;
44078;SDS011;29744;49.078;12.878;2022-07-22T00:39:55;1.80;;;1.20;;
44078;SDS011;29744;49.078;12.878;2022-07-22T00:44:55;1.92;;;1.35;;
44078;SDS011;29744;49.078;12.878;2022-07-22T00:49:56;1.90;;;1.27;;
44078;SDS011;29744;49.078;12.878;2022-07-22T00:54:57;2.50;;;1.15;;
44078;SDS011;29744;49.078;12.878;2022-07-22T00:59:58;1.88;;;1.20;;
44078;SDS011;29744;49.078;12.878;2022-07-22T01:04:59;1.92;;;1.20;;
44078;SDS011;29744;49.078;12.878;2022-07-22T01:10:00;2.05;;;1.23;;
44078;SDS011;29744;49.078;12.878;2022-07-22T01:15:00;1.67;;;1.20;;
44078;SDS011;29744;49.078;12.878;2022-07-22T01:20:01;1.83;;;1.23;;
44078;SDS011;29744;49.078;12.878;2022-07-22T01:25:04;2.28;;;1.30;;
44078;SDS011;29744;49.078;12.878;2022-07-22T01:30:05;2.20;;;1.40;;
44078;SDS011;29744;49.078;12.878;2022-07-22T01:35:06;2.58;;;1.50;;
44078;SDS011;29744;49.078;12.878;2022-07-22T01:40:07;2.45;;;1.42;;
44078;SDS011;29744;49.078;12.878;2022-07-22T01:45:07;2.03;;;1.40;;
44078;SDS011;29744;49.078;12.878;2022-07-22T01:50:09;1.90;;;1.10;;
44078;SDS011;29744;49.078;12.878;2022-07-22T01:55:11;1.83;;;1.10;;
44078;SDS011;29744;49.078;12.878;2022-07-22T02:00:12;1.58;;;1.13;;
44078;SDS011;29744;49.078;12.878;2022-07-22T02:05:13;2.50;;;1.50;;
44078;SDS011;29744;49.078;12.878;2022-07-22T02:10:13;1.90;;;1.20;;
44078;SDS011;29744;49.078;12.878;2022-07-22T02:15:13;1.73;;;1.20;;
44078;SDS011;29744;49.078;12.878;2022-07-22T02:20:14;2.58;;;1.40;;
44078;SDS011;29744;49.078;12.878;2022-07-22T02:25:15;2.00;;;1.20;;
44078;SDS011;29744;49.078;12.878;2022-07-22T02:30:15;1.85;;;1.05;;
44078;SDS011;29744;49.078;12.878;2022-07-22T02:35:15;2.33;;;1.20;;
44078;SDS011;29744;49.078;12.878;2022-07-22T02:40:16;1.92;;;1.17;;
44078;SDS011;29744;49.078;12.878;2022-07-22T02:45:16;2.15;;;1.27;;
44078;SDS011;29744;49.078;12.878;2022-07-22T02:50:16;1.88;;;1.27;;
44078;SDS011;29744;49.078;12.878;2022-07-22T02:55:17;2.03;;;1.20;;
44078;SDS011;29744;49.078;12.878;2022-07-22T03:00:18;1.90;;;1.30;;
44078;SDS011;29744;49.078;12.878;2022-07-22T03:05:18;1.90;;;1.30;;
44078;SDS011;29744;49.078;12.878;2022-07-22T03:10:18;1.50;;;1.10;;
44078;SDS011;29744;49.078;12.878;2022-07-22T03:15:19;2.15;;;1.38;;
44078;SDS011;29744;49.078;12.878;2022-07-22T03:20:19;2.20;;;1.20;;
44078;SDS011;29744;49.078;12.878;2022-07-22T03:25:20;1.92;;;1.27;;
44078;SDS011;29744;49.078;12.878;2022-07-22T03:30:20;1.98;;;1.38;;
44078;SDS011;29744;49.078;12.878;2022-07-22T03:35:20;1.88;;;1.27;;
44078;SDS011;29744;49.078;12.878;2022-07-22T03:40:21;2.15;;;1.27;;
44078;SDS011;29744;49.078;12.878;2022-07-22T03:45:21;2.03;;;1.10;;
44078;SDS011;29744;49.078;12.878;2022-07-22T03:50:21;1.70;;;1.30;;
44078;SDS011;29744;49.078;12.878;2022-07-22T03:55:22;2.00;;;1.30;;
44078;SDS011;29744;49.078;12.878;2022-07-22T04:00:22;1.70;;;1.20;;
44078;SDS011;29744;49.078;12.878;2022-07-22T04:05:22;1.73;;;1.20;;
44078;SDS011;29744;49.078;12.878;2022-07-22T04:10:23;2.38;;;1.20;;
44078;SDS011;29744;49.078;12.878;2022-07-22T04:15:23;1.48;;;1.08;;
44078;SDS011;29744;49.078;12.878;2022-07-22T04:20:23;1.88;;;1.17;;
44078;SDS011;29744;49.078;12.878;2022-07-22T04:25:24;2.17;;;1.20;;
44078;SDS011;29744;49.078;12.878;2022-07-22T04:30:24;1.73;;;1.23;;
44078;SDS011;29744;49.078;12.878;2022-07-22T04:35:24;2.20;;;1.33;;
44078;SDS011;29744;49.078;12.878;2022-07-22T04:40:25;2.03;;;1.30;;
44078;SDS011;29744;49.078;12.878;2022-07-22T04:45:25;1.98;;;1.20;;
44078;SDS011;29744;49.078;12.878;2022-07-22T04:50:25;1.98;;;1.15;;
44078;SDS011;29744;49.078;12.878;2022-07-22T04:55:26;1.90;;;1.35;;
44078;SDS011;29744;49.078;12.878;2022-07-22T05:00:26;1.27;;;1.08;;
44078;SDS011;29744;49.078;12.878;2022-07-22T05:05:27;1.75;;;1.20;;
44078;SDS011;29744;49.078;12.878;2022-07-22T05:10:28;1.80;;;1.10;;
44078;SDS011;29744;49.078;12.878;2022-07-22T05:15:28;1.85;;;1.27;;
44078;SDS011;29744;49.078;12.878;2022-07-22T05:20:28;1.85;;;1.30;;
44078;SDS011;29744;49.078;12.878;2022-07-22T05:25:29;1.65;;;1.20;;
44078;SDS011;29744;49.078;12.878;2022-07-22T05:30:29;2.22;;;1.38;;
44078;SDS011;29744;49.078;12.878;2022-07-22T05:35:30;2.22;;;1.33;;
44078;SDS011;29744;49.078;12.878;2022-07-22T05:40:30;2.10;;;1.15;;
44078;SDS011;29744;49.078;12.878;2022-07-22T05:45:30;2.15;;;1.30;;
44078;SDS011;29744;49.078;12.878;2022-07-22T05:50:30;1.95;;;1.27;;
44078;SDS011;29744;49.078;12.878;2022-07-22T05:55:31;1.92;;;1.30;;
44078;SDS011;29744;49.078;12.878;2022-07-22T06:00:31;2.40;;;1.33;;
44078;SDS011;29744;49.078;12.878;2022-07-22T06:05:31;2.13;;;1.20;;
44078;SDS011;29744;49.078;12.878;2022-07-22T06:10:32;1.52;;;1.10;;
44078;SDS011;29744;49.078;12.878;2022-07-22T06:15:32;1.75;;;1.10;;
44078;SDS011;29744;49.078;12.878;2022-07-22T06:20:32;2.28;;;1.42;;
44078;SDS011;29744;49.078;12.878;2022-07-22T06:25:33;1.73;;;1.27;;
44078;SDS011;29744;49.078;12.878;2022-07-22T06:30:33;1.90;;;1.10;;
44078;SDS011;29744;49.078;12.878;2022-07-22T06:35:34;1.80;;;1.30;;
44078;SDS011;29744;49.078;12.878;2022-07-22T06:40:34;1.90;;;1.20;;
44078;SDS011;29744;49.078;12.878;2022-07-22T06:45:35;1.98;;;1.30;;
44078;SDS011;29744;49.078;12.878;2022-07-22T06:50:35;1.73;;;1.10;;
44078;SDS011;29744;49.078;12.878;2022-07-22T06:55:35;1.75;;;1.13;;
44078;SDS011;29744;49.078;12.878;2022-07-22T07:00:36;2.03;;;1.30;;
44078;SDS011;29744;49.078;12.878;2022-07-22T07:05:36;2.08;;;1.30;;
44078;SDS011;29744;49.078;12.878;2022-07-22T07:10:36;2.03;;;1.23;;
44078;SDS011;29744;49.078;12.878;2022-07-22T07:15:37;1.80;;;1.17;;
44078;SDS011;29744;49.078;12.878;2022-07-22T07:20:37;1.50;;;1.10;;
44078;SDS011;29744;49.078;12.878;2022-07-22T07:25:38;1.77;;;1.25;;
44078;SDS011;29744;49.078;12.878;2022-07-22T07:30:38;1.88;;;1.17;;
44078;SDS011;29744;49.078;12.878;2022-07-22T07:35:38;2.30;;;1.17;;
44078;SDS011;29744;49.078;12.878;2022-07-22T07:40:38;1.95;;;1.35;;
44078;SDS011;29744;49.078;12.878;2022-07-22T07:45:39;2.30;;;1.33;;
44078;SDS011;29744;49.078;12.878;2022-07-22T07:50:40;1.98;;;1.30;;
44078;SDS011;29744;49.078;12.878;2022-07-22T07:55:40;2.20;;;1.33;;
44078;SDS011;29744;49.078;12.878;2022-07-22T08:00:41;1.58;;;1.10;;
44078;SDS011;29744;49.078;12.878;2022-07-22T08:05:42;1.85;;;1.25;;
44078;SDS011;29744;49.078;12.878;2022-07-22T08:10:42;1.73;;;1.10;;
44078;SDS011;29744;49.078;12.878;2022-07-22T08:15:43;1.88;;;1.23;;
44078;SDS011;29744;49.078;12.878;2022-07-22T08:20:43;2.25;;;1.23;;
44078;SDS011;29744;49.078;12.878;2022-07-22T08:25:44;1.85;;;1.35;;
44078;SDS011;29744;49.078;12.878;2022-07-22T08:30:44;2.05;;;1.30;;
44078;SDS011;29744;49.078;12.878;2022-07-22T08:35:44;1.60;;;1.10;;
44078;SDS011;29744;49.078;12.878;2022-07-22T08:40:45;2.03;;;1.30;;
44078;SDS011;29744;49.078;12.878;2022-07-22T08:45:46;1.90;;;1.27;;
44078;SDS011;29744;49.078;12.878;2022-07-22T08:50:48;1.85;;;1.25;;
44078;SDS011;29744;49.078;12.878;2022-07-22T08:55:48;1.80;;;1.33;;
44078;SDS011;29744;49.078;12.878;2022-07-22T09:01:03;2.10;;;1.30;;
44078;SDS011;29744;49.078;12.878;2022-07-22T09:06:08;2.10;;;1.25;;
44078;SDS011;29744;49.078;12.878;2022-07-22T09:11:28;2.05;;;1.35;;
44078;SDS011;29744;49.078;12.878;2022-07-22T09:16:39;1.88;;;1.13;;
44078;SDS011;29744;49.078;12.878;2022-07-22T09:21:44;1.88;;;1.23;;
44078;SDS011;29744;49.078;12.878;2022-07-22T09:26:47;2.00;;;1.30;;
44078;SDS011;29744;49.078;12.878;2022-07-22T09:31:49;2.17;;;1.35;;
44078;SDS011;29744;49.078;12.878;2022-07-22T09:36:55;1.98;;;1.38;;
44078;SDS011;29744;49.078;12.878;2022-07-22T09:41:57;1.98;;;1.30;;
44078;SDS011;29744;49.078;12.878;2022-07-22T09:46:59;2.05;;;1.33;;
44078;SDS011;29744;49.078;12.878;2022-07-22T09:52:00;2.50;;;1.60;;
44078;SDS011;29744;49.078;12.878;2022-07-22T09:57:01;1.58;;;1.10;;
44078;SDS011;29744;49.078;12.878;2022-07-22T10:02:02;2.13;;;1.50;;
44078;SDS011;29744;49.078;12.878;2022-07-22T10:07:03;2.03;;;1.30;;
44078;SDS011;29744;49.078;12.878;2022-07-22T10:12:05;2.28;;;1.50;;
44078;SDS011;29744;49.078;12.878;2022-07-22T10:17:06;1.98;;;1.38;;
44078;SDS011;29744;49.078;12.878;2022-07-22T10:32:44;2.03;;;1.23;;
44078;SDS011;29744;49.078;12.878;2022-07-22T10:37:45;2.30;;;1.40;;
44078;SDS011;29744;49.078;12.878;2022-07-22T10:48:02;1.77;;;1.38;;
44078;SDS011;29744;49.078;12.878;2022-07-22T10:53:24;2.28;;;1.50;;
44078;SDS011;29744;49.078;12.878;2022-07-22T10:58:40;1.98;;;1.38;;
44078;SDS011;29744;49.078;12.878;2022-07-22T11:03:42;1.90;;;1.40;;
44078;SDS011;29744;49.078;12.878;2022-07-22T11:08:45;2.33;;;1.40;;
44078;SDS011;29744;49.078;12.878;2022-07-22T11:13:46;1.95;;;1.35;;
44078;SDS011;29744;49.078;12.878;2022-07-22T11:18:51;1.58;;;1.15;;
44078;SDS011;29744;49.078;12.878;2022-07-22T11:23:52;1.92;;;1.30;;
44078;SDS011;29744;49.078;12.878;2022-07-22T11:28:57;1.93;;;1.30;;
44078;SDS011;29744;49.078;12.878;2022-07-22T11:34:04;1.85;;;1.25;;
44078;SDS011;29744;49.078;12.878;2022-07-22T11:39:09;2.40;;;1.50;;
44078;SDS011;29744;49.078;12.878;2022-07-22T11:44:11;2.15;;;1.40;;
44078;SDS011;29744;49.078;12.878;2022-07-22T11:49:15;1.85;;;1.30;;
44078;SDS011;29744;49.078;12.878;2022-07-22T11:54:18;1.80;;;1.20;;
44078;SDS011;29744;49.078;12.878;2022-07-22T11:59:18;1.92;;;1.20;;
44078;SDS011;29744;49.078;12.878;2022-07-22T12:04:19;2.42;;;1.52;;
44078;SDS011;29744;49.078;12.878;2022-07-22T12:09:23;2.35;;;1.38;;
44078;SDS011;29744;49.078;12.878;2022-07-22T12:14:27;2.33;;;1.20;;
44078;SDS011;29744;49.078;12.878;2022-07-22T12:19:30;1.80;;;1.27;;
44078;SDS011;29744;49.078;12.878;2022-07-22T12:24:35;1.95;;;1.20;;
44078;SDS011;29744;49.078;12.878;2022-07-22T12:29:41;1.55;;;1.23;;
44078;SDS011;29744;49.078;12.878;2022-07-22T12:34:47;1.80;;;1.17;;
44078;SDS011;29744;49.078;12.878;2022-07-22T12:45:06;1.85;;;1.33;;
44078;SDS011;29744;49.078;12.878;2022-07-22T12:50:18;1.85;;;1.23;;
44078;SDS011;29744;49.078;12.878;2022-07-22T12:55:21;1.95;;;1.35;;
44078;SDS011;29744;49.078;12.878;2022-07-22T13:00:23;1.77;;;1.20;;
44078;SDS011;29744;49.078;12.878;2022-07-22T13:05:26;1.92;;;1.30;;
44078;SDS011;29744;49.078;12.878;2022-07-22T13:10:27;2.15;;;1.40;;
44078;SDS011;29744;49.078;12.878;2022-07-22T13:15:27;2.33;;;1.50;;
44078;SDS011;29744;49.078;12.878;2022-07-22T13:20:28;2.40;;;1.40;;
44078;SDS011;29744;49.078;12.878;2022-07-22T13:25:28;1.80;;;1.30;;
44078;SDS011;29744;49.078;12.878;2022-07-22T13:30:30;1.85;;;1.25;;
44078;SDS011;29744;49.078;12.878;2022-07-22T13:35:31;1.73;;;1.35;;
44078;SDS011;29744;49.078;12.878;2022-07-22T13:40:32;1.65;;;1.20;;
44078;SDS011;29744;49.078;12.878;2022-07-22T13:45:32;1.60;;;1.10;;
44078;SDS011;29744;49.078;12.878;2022-07-22T13:50:32;1.73;;;1.20;;
44078;SDS011;29744;49.078;12.878;2022-07-22T13:55:33;1.63;;;1.17;;
44078;SDS011;29744;49.078;12.878;2022-07-22T14:00:33;2.28;;;1.38;;
44078;SDS011;29744;49.078;12.878;2022-07-22T14:05:33;1.67;;;1.20;;
44078;SDS011;29744;49.078;12.878;2022-07-22T14:10:34;2.08;;;1.48;;
44078;SDS011;29744;49.078;12.878;2022-07-22T14:15:34;1.60;;;1.10;;
44078;SDS011;29744;49.078;12.878;2022-07-22T14:20:35;1.77;;;1.20;;
44078;SDS011;29744;49.078;12.878;2022-07-22T14:25:36;1.45;;;1.15;;
44078;SDS011;29744;49.078;12.878;2022-07-22T14:30:37;2.38;;;1.63;;
44078;SDS011;29744;49.078;12.878;2022-07-22T14:35:38;4.25;;;3.10;;
44078;SDS011;29744;49.078;12.878;2022-07-22T14:40:38;4.85;;;3.30;;
44078;SDS011;29744;49.078;12.878;2022-07-22T14:45:38;4.97;;;3.80;;
44078;SDS011;29744;49.078;12.878;2022-07-22T14:50:39;5.18;;;4.13;;
44078;SDS011;29744;49.078;12.878;2022-07-22T14:55:39;5.35;;;4.25;;
44078;SDS011;29744;49.078;12.878;2022-07-22T15:00:40;4.95;;;3.95;;
44078;SDS011;29744;49.078;12.878;2022-07-22T15:05:40;5.15;;;4.05;;
44078;SDS011;29744;49.078;12.878;2022-07-22T15:10:42;13.95;;;4.75;;
44078;SDS011;29744;49.078;12.878;2022-07-22T15:15:42;5.57;;;4.03;;
44078;SDS011;29744;49.078;12.878;2022-07-22T15:20:43;6.40;;;4.17;;
44078;SDS011;29744;49.078;12.878;2022-07-22T15:25:43;5.55;;;4.13;;
44078;SDS011;29744;49.078;12.878;2022-07-22T15:30:43;5.07;;;3.85;;
44078;SDS011;29744;49.078;12.878;2022-07-22T15:35:45;5.07;;;4.07;;
44078;SDS011;29744;49.078;12.878;2022-07-22T15:40:46;5.63;;;4.05;;
44078;SDS011;29744;49.078;12.878;2022-07-22T15:45:46;6.43;;;4.20;;
44078;SDS011;29744;49.078;12.878;2022-07-22T15:50:46;5.18;;;4.03;;
44078;SDS011;29744;49.078;12.878;2022-07-22T15:55:47;4.95;;;3.97;;
44078;SDS011;29744;49.078;12.878;2022-07-22T16:00:47;4.93;;;4.00;;
44078;SDS011;29744;49.078;12.878;2022-07-22T16:05:48;6.03;;;3.80;;
44078;SDS011;29744;49.078;12.878;2022-07-22T16:10:48;4.68;;;3.85;;
44078;SDS011;29744;49.078;12.878;2022-07-22T16:15:48;5.90;;;3.90;;
44078;SDS011;29744;49.078;12.878;2022-07-22T16:20:49;6.78;;;3.92;;
44078;SDS011;29744;49.078;12.878;2022-07-22T16:25:49;5.37;;;3.90;;
44078;SDS011;29744;49.078;12.878;2022-07-22T16:30:50;5.45;;;4.20;;
44078;SDS011;29744;49.078;12.878;2022-07-22T16:35:51;5.88;;;4.40;;
44078;SDS011;29744;49.078;12.878;2022-07-22T16:40:51;8.35;;;4.80;;
44078;SDS011;29744;49.078;12.878;2022-07-22T16:45:51;10.13;;;5.68;;
44078;SDS011;29744;49.078;12.878;2022-07-22T16:50:51;10.85;;;5.45;;
44078;SDS011;29744;49.078;12.878;2022-07-22T16:55:52;11.43;;;5.93;;
44078;SDS011;29744;49.078;12.878;2022-07-22T17:00:52;12.55;;;6.35;;
44078;SDS011;29744;49.078;12.878;2022-07-22T17:05:53;11.05;;;5.88;;
44078;SDS011;29744;49.078;12.878;2022-07-22T17:10:53;12.23;;;5.97;;
44078;SDS011;29744;49.078;12.878;2022-07-22T17:15:53;13.57;;;6.63;;
44078;SDS011;29744;49.078;12.878;2022-07-22T17:20:55;15.32;;;6.88;;
44078;SDS011;29744;49.078;12.878;2022-07-22T17:25:56;13.15;;;6.53;;
44078;SDS011;29744;49.078;12.878;2022-07-22T17:30:57;13.82;;;6.35;;
44078;SDS011;29744;49.078;12.878;2022-07-22T17:35:57;16.95;;;7.47;;
44078;SDS011;29744;49.078;12.878;2022-07-22T17:40:57;14.85;;;7.53;;
44078;SDS011;29744;49.078;12.878;2022-07-22T17:45:58;13.05;;;6.63;;
44078;SDS011;29744;49.078;12.878;2022-07-22T17:50:58;13.82;;;7.40;;
44078;SDS011;29744;49.078;12.878;2022-07-22T17:55:59;15.38;;;7.32;;
44078;SDS011;29744;49.078;12.878;2022-07-22T18:00:59;12.13;;;6.50;;
44078;SDS011;29744;49.078;12.878;2022-07-22T18:05:59;13.43;;;7.53;;
44078;SDS011;29744;49.078;12.878;2022-07-22T18:11:02;13.40;;;7.07;;
44078;SDS011;29744;49.078;12.878;2022-07-22T18:16:03;10.93;;;7.13;;
44078;SDS011;29744;49.078;12.878;2022-07-22T18:21:04;13.10;;;7.03;;
44078;SDS011;29744;49.078;12.878;2022-07-22T18:26:04;12.95;;;6.85;;
44078;SDS011;29744;49.078;12.878;2022-07-22T18:31:05;12.52;;;6.25;;
44078;SDS011;29744;49.078;12.878;2022-07-22T18:36:07;10.98;;;6.38;;
44078;SDS011;29744;49.078;12.878;2022-07-22T18:41:07;14.27;;;6.95;;
44078;SDS011;29744;49.078;12.878;2022-07-22T18:46:08;9.80;;;6.28;;
44078;SDS011;29744;49.078;12.878;2022-07-22T18:51:08;11.75;;;6.43;;
44078;SDS011;29744;49.078;12.878;2022-07-22T18:56:08;11.15;;;6.50;;
44078;SDS011;29744;49.078;12.878;2022-07-22T19:01:10;12.98;;;6.65;;
44078;SDS011;29744;49.078;12.878;2022-07-22T19:06:10;12.00;;;6.53;;
44078;SDS011;29744;49.078;12.878;2022-07-22T19:11:11;11.07;;;6.07;;
44078;SDS011;29744;49.078;12.878;2022-07-22T19:16:11;10.70;;;6.88;;
44078;SDS011;29744;49.078;12.878;2022-07-22T19:21:12;12.52;;;6.30;;
44078;SDS011;29744;49.078;12.878;2022-07-22T19:26:13;10.10;;;6.38;;
44078;SDS011;29744;49.078;12.878;2022-07-22T19:31:13;9.82;;;6.57;;
44078;SDS011;29744;49.078;12.878;2022-07-22T19:36:14;12.25;;;6.28;;
44078;SDS011;29744;49.078;12.878;2022-07-22T19:41:14;12.25;;;7.07;;
44078;SDS011;29744;49.078;12.878;2022-07-22T19:46:14;9.45;;;5.93;;
44078;SDS011;29744;49.078;12.878;2022-07-22T19:51:17;11.63;;;6.22;;
44078;SDS011;29744;49.078;12.878;2022-07-22T19:56:17;12.45;;;6.00;;
44078;SDS011;29744;49.078;12.878;2022-07-22T20:01:18;9.82;;;6.25;;
44078;SDS011;29744;49.078;12.878;2022-07-22T20:06:18;12.43;;;6.13;;
44078;SDS011;29744;49.078;12.878;2022-07-22T20:11:19;8.93;;;5.97;;
44078;SDS011;29744;49.078;12.878;2022-07-22T20:16:19;9.65;;;5.65;;
44078;SDS011;29744;49.078;12.878;2022-07-22T20:21:19;9.05;;;5.75;;
44078;SDS011;29744;49.078;12.878;2022-07-22T20:26:20;9.55;;;5.95;;
44078;SDS011;29744;49.078;12.878;2022-07-22T20:31:21;9.68;;;5.78;;
44078;SDS011;29744;49.078;12.878;2022-07-22T20:36:22;8.48;;;6.15;;
44078;SDS011;29744;49.078;12.878;2022-07-22T20:41:22;8.00;;;5.47;;
44078;SDS011;29744;49.078;12.878;2022-07-22T20:46:23;8.60;;;6.05;;
44078;SDS011;29744;49.078;12.878;2022-07-22T20:51:24;9.95;;;6.20;;
44078;SDS011;29744;49.078;12.878;2022-07-22T20:56:24;8.48;;;5.43;;
44078;SDS011;29744;49.078;12.878;2022-07-22T21:01:24;8.75;;;5.18;;
44078;SDS011;29744;49.078;12.878;2022-07-22T21:06:25;8.82;;;5.78;;
44078;SDS011;29744;49.078;12.878;2022-07-22T21:11:25;8.25;;;5.32;;
44078;SDS011;29744;49.078;12.878;2022-07-22T21:16:26;7.75;;;5.18;;
44078;SDS011;29744;49.078;12.878;2022-07-22T21:21:26;7.90;;;5.53;;
44078;SDS011;29744;49.078;12.878;2022-07-22T21:26:26;9.35;;;5.35;;
44078;SDS011;29744;49.078;12.878;2022-07-22T21:31:27;8.38;;;4.95;;
44078;SDS011;29744;49.078;12.878;2022-07-22T21:36:27;8.15;;;5.00;;
44078;SDS011;29744;49.078;12.878;2022-07-22T21:41:28;8.02;;;6.07;;
44078;SDS011;29744;49.078;12.878;2022-07-22T21:46:29;7.97;;;5.28;;
44078;SDS011;29744;49.078;12.878;2022-07-22T21:51:29;7.25;;;5.15;;
44078;SDS011;29744;49.078;12.878;2022-07-22T21:56:29;8.68;;;5.50;;
44078;SDS011;29744;49.078;12.878;2022-07-22T22:01:48;8.10;;;5.15;;
44078;SDS011;29744;49.078;12.878;2022-07-22T22:06:50;8.57;;;5.40;;
44078;SDS011;29744;49.078;12.878;2022-07-22T22:11:51;8.82;;;5.25;;
44078;SDS011;29744;49.078;12.878;2022-07-22T22:16:51;8.27;;;5.47;;
44078;SDS011;29744;49.078;12.878;2022-07-22T22:21:52;6.95;;;5.22;;
44078;SDS011;29744;49.078;12.878;2022-07-22T22:26:52;7.18;;;5.05;;
44078;SDS011;29744;49.078;12.878;2022-07-22T22:31:52;7.43;;;5.15;;
44078;SDS011;29744;49.078;12.878;2022-07-22T22:36:53;7.50;;;4.75;;
44078;SDS011;29744;49.078;12.878;2022-07-22T22:41:53;7.35;;;5.25;;
44078;SDS011;29744;49.078;12.878;2022-07-22T22:46:54;6.97;;;5.10;;
44078;SDS011;29744;49.078;12.878;2022-07-22T22:51:54;7.28;;;5.38;;
44078;SDS011;29744;49.078;12.878;2022-07-22T22:56:54;7.70;;;5.55;;
44078;SDS011;29744;49.078;12.878;2022-07-22T23:01:55;6.65;;;4.82;;
44078;SDS011;29744;49.078;12.878;2022-07-22T23:06:55;5.80;;;4.70;;
44078;SDS011;29744;49.078;12.878;2022-07-22T23:11:55;7.40;;;5.28;;
44078;SDS011;29744;49.078;12.878;2022-07-22T23:16:55;6.78;;;5.22;;
44078;SDS011;29744;49.078;12.878;2022-07-22T23:21:56;7.68;;;5.07;;
44078;SDS011;29744;49.078;12.878;2022-07-22T23:26:56;8.15;;;5.53;;
44078;SDS011;29744;49.078;12.878;2022-07-22T23:31:57;6.50;;;4.78;;
44078;SDS011;29744;49.078;12.878;2022-07-22T23:36:57;6.55;;;5.00;;
44078;SDS011;29744;49.078;12.878;2022-07-22T23:41:58;6.25;;;4.55;;
44078;SDS011;29744;49.078;12.878;2022-07-22T23:47:01;7.22;;;4.88;;
44078;SDS011;29744;49.078;12.878;2022-07-22T23:52:01;5.93;;;4.43;;
44078;SDS011;29744;49.078;12.878;2022-07-22T23:57:02;6.90;;;5.30;;
